createdAt,value
2019-04-27T00:01:10.466Z,41.27
2019-04-27T00:03:44.837Z,39.47
2019-04-27T00:06:15.008Z,40.93
2019-04-27T00:08:49.620Z,37.50
2019-04-27T00:11:23.045Z,39.23
2019-04-27T00:13:53.584Z,38.93
2019-04-27T00:16:50.519Z,40.47
2019-04-27T00:19:36.538Z,37.03
2019-04-27T00:22:16.078Z,39.63
2019-04-27T00:24:44.950Z,41.03
2019-04-27T00:27:13.738Z,42.07
2019-04-27T00:29:43.276Z,39.13
2019-04-27T00:32:13.157Z,41.00
2019-04-27T00:34:43.135Z,42.30
2019-04-27T00:37:35.786Z,44.37
2019-04-27T00:40:15.525Z,38.33
2019-04-27T00:42:44.371Z,41.37
2019-04-27T00:45:13.984Z,41.50
2019-04-27T00:47:54.723Z,44.37
2019-04-27T00:50:14.344Z,40.80
2019-04-27T00:52:43.126Z,41.73
2019-04-27T00:55:13.277Z,39.10
2019-04-27T00:58:07.484Z,38.30
2019-04-27T01:00:53.873Z,42.17
2019-04-27T01:03:28.670Z,38.47
2019-04-27T01:05:57.702Z,40.40
2019-04-27T01:08:26.473Z,43.60
2019-04-27T01:10:55.263Z,38.07
2019-04-27T01:13:24.391Z,40.33
2019-04-27T01:15:54.124Z,42.00
2019-04-27T01:18:23.023Z,39.13
2019-04-27T01:20:51.999Z,41.47
2019-04-27T01:23:20.770Z,41.47
2019-04-27T01:26:11.656Z,40.13
2019-04-27T01:28:46.018Z,39.67
2019-04-27T01:31:15.070Z,42.33
2019-04-27T01:33:44.475Z,41.47
2019-04-27T01:36:13.507Z,39.63
2019-04-27T01:38:42.367Z,40.73
2019-04-27T01:41:11.158Z,40.87
2019-04-27T01:43:40.246Z,41.57
2019-04-27T01:46:09.382Z,42.43
2019-04-27T01:48:38.727Z,43.80
2019-04-27T01:51:09.228Z,37.50
2019-04-27T01:53:38.991Z,40.70
2019-04-27T01:56:09.232Z,43.73
2019-04-27T01:58:39.237Z,41.20
2019-04-27T02:01:28.711Z,39.80
2019-04-27T02:04:09.242Z,43.10
2019-04-27T02:06:38.617Z,40.00
2019-04-27T02:09:10.421Z,43.83
2019-04-27T02:11:39.288Z,38.47
2019-04-27T02:14:09.499Z,40.37
2019-04-27T02:16:39.230Z,45.20
2019-04-27T02:19:11.023Z,39.47
2019-04-27T02:21:39.274Z,43.37
2019-04-27T02:24:09.739Z,37.87
2019-04-27T02:26:39.850Z,40.77
2019-04-27T02:29:30.966Z,43.60
2019-04-27T02:32:20.307Z,41.00
2019-04-27T02:35:00.174Z,39.27
2019-04-27T02:37:30.387Z,42.93
2019-04-27T02:40:00.201Z,41.07
2019-04-27T02:42:33.976Z,40.63
2019-04-27T02:45:02.863Z,37.40
2019-04-27T02:47:31.972Z,38.40
2019-04-27T02:50:01.067Z,38.20
2019-04-27T02:52:40.297Z,41.80
2019-04-27T02:55:09.525Z,41.43
2019-04-27T02:57:39.928Z,42.13
2019-04-27T03:00:10.474Z,40.27
2019-04-27T03:02:43.893Z,41.30
2019-04-27T03:05:22.447Z,39.20
2019-04-27T03:07:51.220Z,39.13
2019-04-27T03:10:20.460Z,38.87
2019-04-27T03:12:55.732Z,43.67
2019-04-27T03:15:36.871Z,38.90
2019-04-27T03:18:13.550Z,41.60
2019-04-27T03:20:55.027Z,39.50
2019-04-27T03:23:23.878Z,38.63
2019-04-27T03:26:19.573Z,37.93
2019-04-27T03:28:50.285Z,36.43
2019-04-27T03:31:21.443Z,38.63
2019-04-27T03:33:54.823Z,37.80
2019-04-27T03:36:21.631Z,36.33
2019-04-27T03:38:50.698Z,36.63
2019-04-27T03:41:20.030Z,35.20
2019-04-27T03:43:50.310Z,35.50
2019-04-27T03:46:20.519Z,37.97
2019-04-27T03:48:50.412Z,35.00
2019-04-27T03:51:44.445Z,35.90
2019-04-27T03:54:31.901Z,36.20
2019-04-27T03:57:04.704Z,34.93
2019-04-27T03:59:56.118Z,36.63
2019-04-27T04:02:25.061Z,33.10
2019-04-27T04:04:53.906Z,35.40
2019-04-27T04:07:23.196Z,33.67
2019-04-27T04:09:52.034Z,34.87
2019-04-27T04:12:30.373Z,32.57
2019-04-27T04:15:00.007Z,33.23
2019-04-27T04:17:30.776Z,33.97
2019-04-27T04:20:01.931Z,29.37
2019-04-27T04:22:31.769Z,29.13
2019-04-27T04:25:00.927Z,32.00
2019-04-27T04:27:30.211Z,28.47
2019-04-27T04:29:59.565Z,30.47
2019-04-27T04:32:29.847Z,30.93
2019-04-27T04:35:20.742Z,27.37
2019-04-27T04:37:52.147Z,28.87
2019-04-27T04:40:23.169Z,31.27
2019-04-27T04:43:00.280Z,26.73
2019-04-27T04:45:50.106Z,26.67
2019-04-27T04:48:20.088Z,27.17
2019-04-27T04:50:50.059Z,27.27
2019-04-27T04:53:20.610Z,28.67
2019-04-27T04:55:50.060Z,25.23
2019-04-27T04:58:20.937Z,25.63
2019-04-27T05:00:50.174Z,26.07
2019-04-27T05:03:21.394Z,26.80
2019-04-27T05:05:50.241Z,24.93
2019-04-27T05:08:19.827Z,21.17
2019-04-27T05:10:49.669Z,22.17
2019-04-27T05:13:19.470Z,23.53
2019-04-27T05:15:48.779Z,22.43
2019-04-27T05:18:19.203Z,23.43
2019-04-27T05:21:13.246Z,22.63
2019-04-27T05:23:42.092Z,20.43
2019-04-27T05:26:10.939Z,24.97
2019-04-27T05:28:40.820Z,24.07
2019-04-27T05:31:09.675Z,22.47
2019-04-27T05:33:38.912Z,22.97
2019-04-27T05:36:09.146Z,23.23
2019-04-27T05:38:39.878Z,20.43
2019-04-27T05:41:09.709Z,21.17
2019-04-27T05:43:49.074Z,21.37
2019-04-27T05:46:49.346Z,19.17
2019-04-27T05:49:44.435Z,18.63
2019-04-27T05:52:29.355Z,17.53
2019-04-27T05:54:59.482Z,22.90
2019-04-27T05:57:31.422Z,17.77
2019-04-27T06:00:02.318Z,20.00
2019-04-27T06:02:30.934Z,23.43
2019-04-27T06:05:00.251Z,21.63
2019-04-27T06:07:29.649Z,17.37
2019-04-27T06:09:59.857Z,18.63
2019-04-27T06:12:29.763Z,17.87
2019-04-27T06:14:59.994Z,17.67
2019-04-27T06:17:48.505Z,18.40
2019-04-27T06:20:18.847Z,18.47
2019-04-27T06:22:48.920Z,15.53
2019-04-27T06:25:21.161Z,16.77
2019-04-27T06:27:49.554Z,16.10
2019-04-27T06:30:19.484Z,17.80
2019-04-27T06:32:49.482Z,17.80
2019-04-27T06:35:18.778Z,15.43
2019-04-27T06:37:49.288Z,18.30
2019-04-27T06:40:18.834Z,13.50
2019-04-27T06:42:48.644Z,12.63
2019-04-27T06:45:19.556Z,11.93
2019-04-27T06:47:48.839Z,11.97
2019-04-27T06:50:19.609Z,11.43
2019-04-27T06:52:49.075Z,11.10
2019-04-27T06:55:18.878Z,11.50
2019-04-27T06:57:49.099Z,10.87
2019-04-27T07:00:18.984Z,11.53
2019-04-27T07:02:49.297Z,11.03
2019-04-27T07:05:20.181Z,12.70
2019-04-27T07:07:49.299Z,13.20
2019-04-27T07:10:18.598Z,12.13
2019-04-27T07:12:49.078Z,14.00
2019-04-27T07:15:20.172Z,10.37
2019-04-27T07:17:49.306Z,9.77
2019-04-27T07:20:18.923Z,11.07
2019-04-27T07:22:49.532Z,10.73
2019-04-27T07:25:18.971Z,11.27
2019-04-27T07:27:49.368Z,11.33
2019-04-27T07:30:19.100Z,11.70
2019-04-27T07:32:48.880Z,9.63
2019-04-27T07:35:19.509Z,10.77
2019-04-27T07:37:48.980Z,11.23
2019-04-27T07:40:18.784Z,10.03
2019-04-27T07:42:50.868Z,9.80
2019-04-27T07:45:25.610Z,11.47
2019-04-27T07:47:54.896Z,11.77
2019-04-27T07:50:23.987Z,8.47
2019-04-27T07:52:53.131Z,8.93
2019-04-27T07:55:21.904Z,10.00
2019-04-27T07:57:51.034Z,13.37
2019-04-27T08:00:20.235Z,8.93
2019-04-27T08:02:49.078Z,10.60
2019-04-27T08:05:19.206Z,7.20
2019-04-27T08:07:49.179Z,7.57
2019-04-27T08:10:19.373Z,12.73
2019-04-27T08:12:49.827Z,10.20
2019-04-27T08:15:19.029Z,8.50
2019-04-27T08:17:49.277Z,8.27
2019-04-27T08:20:20.858Z,10.03
2019-04-27T08:22:49.681Z,8.07
2019-04-27T08:25:19.001Z,10.37
2019-04-27T08:28:00.499Z,8.20
2019-04-27T08:30:51.436Z,8.53
2019-04-27T08:33:20.812Z,9.03
2019-04-27T08:35:50.002Z,8.07
2019-04-27T08:38:20.604Z,9.40
2019-04-27T08:40:49.582Z,7.67
2019-04-27T08:43:19.117Z,8.20
2019-04-27T08:45:48.967Z,7.93
2019-04-27T08:48:31.467Z,6.63
2019-04-27T08:50:48.747Z,7.57
2019-04-27T08:53:18.610Z,7.40
2019-04-27T08:55:49.298Z,5.80
2019-04-27T08:58:21.082Z,5.90
2019-04-27T09:00:49.096Z,5.60
2019-04-27T09:03:19.338Z,8.57
2019-04-27T09:05:49.042Z,5.20
2019-04-27T09:08:22.874Z,4.17
2019-04-27T09:11:08.987Z,4.27
2019-04-27T09:13:53.327Z,4.83
2019-04-27T09:16:28.897Z,4.57
2019-04-27T09:19:01.588Z,5.57
2019-04-27T09:21:49.758Z,5.20
2019-04-27T09:24:18.803Z,4.03
2019-04-27T09:26:49.212Z,5.63
2019-04-27T09:29:19.743Z,3.23
2019-04-27T09:31:49.462Z,3.93
2019-04-27T09:34:18.955Z,3.80
2019-04-27T09:36:48.268Z,3.93
2019-04-27T09:39:17.071Z,4.77
2019-04-27T09:41:48.271Z,5.83
2019-04-27T09:44:16.979Z,5.83
2019-04-27T09:46:47.545Z,6.90
2019-04-27T09:49:16.743Z,5.17
2019-04-27T09:51:46.057Z,5.87
2019-04-27T09:54:15.933Z,6.20
2019-04-27T09:56:46.595Z,5.63
2019-04-27T09:59:16.013Z,4.77
2019-04-27T10:01:46.503Z,4.23
2019-04-27T10:04:17.460Z,4.10
2019-04-27T10:06:48.773Z,5.13
2019-04-27T10:09:17.620Z,3.60
2019-04-27T10:11:46.770Z,5.87
2019-04-27T10:14:16.371Z,4.73
2019-04-27T10:16:46.921Z,4.70
2019-04-27T10:19:28.248Z,4.63
2019-04-27T10:21:46.797Z,4.83
2019-04-27T10:24:15.713Z,4.27
2019-04-27T10:26:44.920Z,5.77
2019-04-27T10:29:14.009Z,6.50
2019-04-27T10:31:43.107Z,5.37
2019-04-27T10:34:11.887Z,5.63
2019-04-27T10:36:40.946Z,6.90
2019-04-27T10:39:13.298Z,4.67
2019-04-27T10:41:42.093Z,4.63
2019-04-27T10:44:11.547Z,5.80
2019-04-27T10:46:40.490Z,6.13
2019-04-27T10:49:09.703Z,4.43
2019-04-27T10:51:38.495Z,4.37
2019-04-27T10:54:08.055Z,3.57
2019-04-27T10:56:36.869Z,4.20
2019-04-27T10:59:09.467Z,2.90
2019-04-27T11:01:36.893Z,2.90
2019-04-27T11:04:20.983Z,3.10
2019-04-27T11:06:56.318Z,3.77
2019-04-27T11:09:25.734Z,2.87
2019-04-27T11:11:56.592Z,2.90
2019-04-27T11:14:26.176Z,3.17
2019-04-27T11:16:56.131Z,4.23
2019-04-27T11:19:26.761Z,5.43
2019-04-27T11:21:55.706Z,4.00
2019-04-27T11:24:24.900Z,3.70
2019-04-27T11:26:53.682Z,3.43
2019-04-27T11:29:23.090Z,3.23
2019-04-27T11:31:52.494Z,3.00
2019-04-27T11:34:23.255Z,5.27
2019-04-27T11:36:58.907Z,3.33
2019-04-27T11:39:28.495Z,2.57
2019-04-27T11:41:57.575Z,2.43
2019-04-27T11:44:26.799Z,4.07
2019-04-27T11:46:56.000Z,2.90
2019-04-27T11:49:25.771Z,2.43
2019-04-27T11:51:56.640Z,4.47
2019-04-27T11:54:27.424Z,3.60
2019-04-27T11:56:56.391Z,1.90
2019-04-27T11:59:27.036Z,1.97
2019-04-27T12:01:56.278Z,3.57
2019-04-27T12:04:26.286Z,2.17
2019-04-27T12:06:56.466Z,1.73
2019-04-27T12:09:25.723Z,8.07
2019-04-27T12:11:55.900Z,2.77
2019-04-27T12:14:25.139Z,2.80
2019-04-27T12:16:56.097Z,2.80
2019-04-27T12:19:26.704Z,2.13
2019-04-27T12:21:56.495Z,7.60
2019-04-27T12:24:26.712Z,2.77
2019-04-27T12:27:02.355Z,4.20
2019-04-27T12:29:50.939Z,4.13
2019-04-27T12:32:20.098Z,1.70
2019-04-27T12:34:48.871Z,2.07
2019-04-27T12:37:17.669Z,2.10
2019-04-27T12:39:46.454Z,3.10
2019-04-27T12:42:16.041Z,1.83
2019-04-27T12:44:45.515Z,3.83
2019-04-27T12:47:16.213Z,2.50
2019-04-27T12:49:45.279Z,2.80
2019-04-27T12:52:15.872Z,2.93
2019-04-27T12:54:51.011Z,3.37
2019-04-27T12:57:38.231Z,4.23
2019-04-27T13:00:22.792Z,3.00
2019-04-27T13:02:51.603Z,4.67
2019-04-27T13:05:20.520Z,4.83
2019-04-27T13:07:49.559Z,3.93
2019-04-27T13:10:18.474Z,4.87
2019-04-27T13:12:47.266Z,2.90
2019-04-27T13:15:17.258Z,3.40
2019-04-27T13:17:46.038Z,3.80
2019-04-27T13:20:16.454Z,4.17
2019-04-27T13:22:45.903Z,2.93
2019-04-27T13:25:15.378Z,2.67
2019-04-27T13:27:44.170Z,2.17
2019-04-27T13:30:13.488Z,2.13
2019-04-27T13:32:42.342Z,3.40
2019-04-27T13:35:11.392Z,2.33
2019-04-27T13:37:42.188Z,1.57
2019-04-27T13:40:13.966Z,3.90
2019-04-27T13:42:58.610Z,2.97
2019-04-27T13:45:50.123Z,1.87
2019-04-27T13:48:30.078Z,7.57
2019-04-27T13:51:00.518Z,2.27
2019-04-27T13:53:29.604Z,3.13
2019-04-27T13:56:00.427Z,3.00
2019-04-27T13:58:29.528Z,1.30
2019-04-27T14:00:58.611Z,1.50
2019-04-27T14:03:27.482Z,1.47
2019-04-27T14:05:56.919Z,1.83
2019-04-27T14:08:26.270Z,1.27
2019-04-27T14:10:55.043Z,1.37
2019-04-27T14:13:23.851Z,1.60
2019-04-27T14:15:53.091Z,1.50
2019-04-27T14:18:21.878Z,2.90
2019-04-27T14:20:50.918Z,1.57
2019-04-27T14:23:21.628Z,1.67
2019-04-27T14:25:50.706Z,1.70
2019-04-27T14:28:19.799Z,2.20
2019-04-27T14:30:48.895Z,1.70
2019-04-27T14:33:18.585Z,1.83
2019-04-27T14:35:49.885Z,1.50
2019-04-27T14:38:19.201Z,2.40
2019-04-27T14:40:50.406Z,2.10
2019-04-27T14:43:18.998Z,3.23
2019-04-27T14:45:48.648Z,2.13
2019-04-27T14:48:18.523Z,2.43
2019-04-27T14:50:48.562Z,2.47
2019-04-27T14:53:18.535Z,3.47
2019-04-27T14:55:48.994Z,2.63
2019-04-27T14:58:19.244Z,2.67
2019-04-27T15:00:49.835Z,3.43
2019-04-27T15:03:18.820Z,2.67
2019-04-27T15:05:49.683Z,2.70
2019-04-27T15:08:18.834Z,5.33
2019-04-27T15:10:48.346Z,2.90
2019-04-27T15:13:18.708Z,3.73
2019-04-27T15:15:47.727Z,3.07
2019-04-27T15:18:16.783Z,3.07
2019-04-27T15:20:46.711Z,2.70
2019-04-27T15:23:15.819Z,3.40
2019-04-27T15:25:47.052Z,3.43
2019-04-27T15:28:17.852Z,3.73
2019-04-27T15:31:22.357Z,3.60
2019-04-27T15:34:11.080Z,4.60
2019-04-27T15:37:03.176Z,3.80
2019-04-27T15:40:04.224Z,4.30
2019-04-27T15:42:41.654Z,4.90
2019-04-27T15:45:12.021Z,4.27
2019-04-27T15:47:42.524Z,3.87
2019-04-27T15:50:12.524Z,4.23
2019-04-27T15:52:41.442Z,5.30
2019-04-27T15:55:31.068Z,5.30
2019-04-27T15:57:42.637Z,4.17
2019-04-27T16:00:20.885Z,4.63
2019-04-27T16:02:49.359Z,4.63
2019-04-27T16:05:19.170Z,5.23
2019-04-27T16:07:48.165Z,4.30
2019-04-27T16:10:17.724Z,5.17
2019-04-27T16:13:05.764Z,5.83
2019-04-27T16:15:19.074Z,4.37
2019-04-27T16:17:53.309Z,5.67
2019-04-27T16:20:22.074Z,5.40
2019-04-27T16:22:49.758Z,4.87
2019-04-27T16:25:18.710Z,5.67
2019-04-27T16:27:48.997Z,3.50
2019-04-27T16:30:20.549Z,1.67
2019-04-27T16:32:49.060Z,1.80
2019-04-27T16:35:19.461Z,4.50
2019-04-27T16:38:00.144Z,2.77
2019-04-27T16:40:30.120Z,2.67
2019-04-27T16:42:59.050Z,4.30
2019-04-27T16:45:28.108Z,2.93
2019-04-27T16:47:59.448Z,2.83
2019-04-27T16:50:28.871Z,2.00
2019-04-27T16:53:00.953Z,2.67
2019-04-27T16:55:34.164Z,2.70
2019-04-27T16:57:59.981Z,2.37
2019-04-27T17:00:30.324Z,3.67
2019-04-27T17:03:02.728Z,1.73
2019-04-27T17:05:34.494Z,3.17
2019-04-27T17:08:00.930Z,2.20
2019-04-27T17:10:29.813Z,3.73
2019-04-27T17:12:59.130Z,2.70
2019-04-27T17:15:53.482Z,3.63
2019-04-27T17:18:33.719Z,4.47
2019-04-27T17:21:15.867Z,4.20
2019-04-27T17:23:33.393Z,2.70
2019-04-27T17:26:09.564Z,3.00
2019-04-27T17:28:39.302Z,4.73
2019-04-27T17:31:12.651Z,6.60
2019-04-27T17:33:44.594Z,4.00
2019-04-27T17:36:16.242Z,3.57
2019-04-27T17:38:47.323Z,4.50
2019-04-27T17:41:14.037Z,5.60
2019-04-27T17:43:43.010Z,25.07
2019-04-27T17:46:13.184Z,6.97
2019-04-27T17:48:42.426Z,55.60
2019-04-27T17:51:11.623Z,4.67
2019-04-27T17:53:40.415Z,3.83
2019-04-27T17:56:09.811Z,5.93
2019-04-27T17:58:39.649Z,5.77
2019-04-27T18:01:13.977Z,6.80
2019-04-27T18:03:41.591Z,8.80
2019-04-27T18:06:10.526Z,10.83
2019-04-27T18:08:40.346Z,6.27
2019-04-27T18:11:09.354Z,12.60
2019-04-27T18:13:38.773Z,6.97
2019-04-27T18:16:09.181Z,8.17
2019-04-27T18:18:51.419Z,8.30
2019-04-27T18:21:24.931Z,6.57
2019-04-27T18:23:58.288Z,8.87
2019-04-27T18:26:48.829Z,7.50
2019-04-27T18:29:09.003Z,8.67
2019-04-27T18:31:38.375Z,8.63
2019-04-27T18:34:09.929Z,6.40
2019-04-27T18:36:43.764Z,9.13
2019-04-27T18:39:12.224Z,7.30
2019-04-27T18:41:44.420Z,7.27
2019-04-27T18:44:11.233Z,10.83
2019-04-27T18:46:40.264Z,7.23
2019-04-27T18:49:30.649Z,6.63
2019-04-27T18:52:12.845Z,7.97
2019-04-27T18:54:42.271Z,9.50
2019-04-27T18:57:15.018Z,8.50
2019-04-27T18:59:41.589Z,7.53
2019-04-27T19:02:10.446Z,9.67
2019-04-27T19:04:39.230Z,7.33
2019-04-27T19:07:08.734Z,7.80
2019-04-27T19:09:37.774Z,10.23
2019-04-27T19:12:06.822Z,6.57
2019-04-27T19:14:35.590Z,17.07
2019-04-27T19:17:04.452Z,10.50
2019-04-27T19:19:33.214Z,13.40
2019-04-27T19:22:02.062Z,6.77
2019-04-27T19:24:31.070Z,8.27
2019-04-27T19:27:17.692Z,8.50
2019-04-27T19:29:53.134Z,6.83
2019-04-27T19:32:22.233Z,8.47
2019-04-27T19:34:50.994Z,6.10
2019-04-27T19:37:19.822Z,6.73
2019-04-27T19:39:49.832Z,8.13
2019-04-27T19:42:20.330Z,6.23
2019-04-27T19:44:49.427Z,7.57
2019-04-27T19:47:18.453Z,8.50
2019-04-27T19:49:47.937Z,9.07
2019-04-27T19:52:18.329Z,8.53
2019-04-27T19:54:49.311Z,8.10
2019-04-27T19:57:31.158Z,6.60
2019-04-27T19:59:53.032Z,10.67
2019-04-27T20:02:22.382Z,8.63
2019-04-27T20:04:58.498Z,11.67
2019-04-27T20:07:28.578Z,6.63
2019-04-27T20:09:59.666Z,9.70
2019-04-27T20:12:28.593Z,7.40
2019-04-27T20:14:57.631Z,7.13
2019-04-27T20:17:28.231Z,8.50
2019-04-27T20:19:57.850Z,8.03
2019-04-27T20:22:26.773Z,8.17
2019-04-27T20:24:55.660Z,5.40
2019-04-27T20:27:24.721Z,7.17
2019-04-27T20:29:53.665Z,9.33
2019-04-27T20:32:22.517Z,6.70
2019-04-27T20:34:51.863Z,8.47
2019-04-27T20:37:21.102Z,5.63
2019-04-27T20:39:51.451Z,9.07
2019-04-27T20:42:21.343Z,6.10
2019-04-27T20:44:51.636Z,8.00
2019-04-27T20:47:20.671Z,6.53
2019-04-27T20:49:49.598Z,5.60
2019-04-27T20:52:50.084Z,7.97
2019-04-27T20:55:19.048Z,5.67
2019-04-27T20:57:58.688Z,5.80
2019-04-27T21:00:21.952Z,5.73
2019-04-27T21:02:57.651Z,5.57
2019-04-27T21:05:37.490Z,5.70
2019-04-27T21:08:07.294Z,7.07
2019-04-27T21:10:36.046Z,6.73
2019-04-27T21:13:05.214Z,5.23
2019-04-27T21:15:34.399Z,8.97
2019-04-27T21:18:03.263Z,7.03
2019-04-27T21:20:32.182Z,8.90
2019-04-27T21:23:01.904Z,7.57
2019-04-27T21:25:31.509Z,8.23
2019-04-27T21:28:14.615Z,8.67
2019-04-27T21:30:32.928Z,5.00
2019-04-27T21:33:01.767Z,6.97
2019-04-27T21:35:30.550Z,12.93
2019-04-27T21:38:01.156Z,7.07
2019-04-27T21:40:30.703Z,10.67
2019-04-27T21:43:01.155Z,8.30
2019-04-27T21:45:31.747Z,5.03
2019-04-27T21:48:00.966Z,6.90
2019-04-27T21:50:31.469Z,7.10
2019-04-27T21:53:12.148Z,8.50
2019-04-27T21:55:42.223Z,7.60
2019-04-27T21:58:11.877Z,7.60
2019-04-27T22:01:03.284Z,6.37
2019-04-27T22:03:32.427Z,6.77
2019-04-27T22:06:01.838Z,11.13
2019-04-27T22:08:31.873Z,9.13
2019-04-27T22:11:01.501Z,7.50
2019-04-27T22:13:31.269Z,8.70
2019-04-27T22:16:00.228Z,9.30
2019-04-27T22:18:29.298Z,10.37
2019-04-27T22:21:01.312Z,6.10
2019-04-27T22:23:42.947Z,9.90
2019-04-27T22:26:11.744Z,8.23
2019-04-27T22:28:48.737Z,8.83
2019-04-27T22:31:12.586Z,10.40
2019-04-27T22:33:42.971Z,6.83
2019-04-27T22:36:11.968Z,9.73
2019-04-27T22:38:41.369Z,7.57
2019-04-27T22:41:26.090Z,10.03
2019-04-27T22:44:12.067Z,7.03
2019-04-27T22:46:42.594Z,10.70
2019-04-27T22:49:11.374Z,8.00
2019-04-27T22:51:41.152Z,8.80
2019-04-27T22:54:11.588Z,10.03
2019-04-27T22:56:42.369Z,7.50
2019-04-27T22:59:17.910Z,9.43
2019-04-27T23:02:24.566Z,8.67
2019-04-27T23:05:01.676Z,10.17
2019-04-27T23:07:31.550Z,10.27
2019-04-27T23:10:01.613Z,8.27
2019-04-27T23:12:31.676Z,8.60
2019-04-27T23:15:01.128Z,7.60
2019-04-27T23:17:44.826Z,9.87
2019-04-27T23:20:13.982Z,7.93
2019-04-27T23:22:42.751Z,9.97
2019-04-27T23:25:12.020Z,8.73
2019-04-27T23:27:41.158Z,8.03
2019-04-27T23:30:11.405Z,10.77
2019-04-27T23:32:43.462Z,9.43
2019-04-27T23:35:12.909Z,7.80
2019-04-27T23:37:41.758Z,9.80
2019-04-27T23:40:11.279Z,9.63
2019-04-27T23:42:41.665Z,9.73
2019-04-27T23:45:10.791Z,15.80
2019-04-27T23:47:39.655Z,8.53
2019-04-27T23:50:10.823Z,10.77
2019-04-27T23:52:57.923Z,9.90
2019-04-27T23:55:30.976Z,10.60
2019-04-27T23:58:00.271Z,11.57
